Thunder radar more information blitzortung!


Löydät sääaseman tiedot myös:

European Weather Network

Finland Weather Exchange

Weather Underground

AWEKAS



Weather Underground säähistoriasivu

Päivittäin yhteenveto Maaliskuu 17, 2017 Yksiköt:  Molemmat    Englantilaiset   Metriset
« Edellinen Päivä
Seuraava Päivä »
Päivittäin Viikoittain Kuukausittain Vuosittain Mukautettu
  Korkea: Matala: Keskiarvo:
Lämpötila: TemperatureC °F /  -17.8 °C 0.6 °F /  -17.4 °C 2.6 °F /  -16.3 °C
Kastepiste: DewpointC °F /  -17.8 °C -2.4 °F /  -19.1 °C 1.4 °F /  -17 °C
Kosteus: Humidity % 66 % 90 %
Tuulen nopeus: WindSpeedKMH mph /  0 km/h - 6.6 mph /  10.6 km/h
Tuulenpuuska: WindSpeedGustKMH mph /  0 km/h - -
Tuuli:- - SSW
Ilmanpaine: PressurehPa in /  0 hPa 980.6 in /  33203.1 hPa -
Sade: 0.0 in /  0 mm    
Historical Graphs
 
 
Taulukkotiedot Maaliskuu 17, 2017
Aika Lämpötila Kastepiste Ilmanpaine Tuuli Tuulen nopeus Tuulenpuuska Kosteus Sademäärä (tunneittain)
TemperatureC °F /  -17.8 °C DewpointC °F /  -17.8 °C PressurehPa in /  0 hPa Calm     Humidity % HourlyPrecipMM in /  0 mm
00:00 3.4 °F /  -15.9 °C -2.4 °F /  -19.1 °C 995.5 in /  33707.6 hPa South 4.8 mph /  7.7 km/h 14.5 mph /  23.3 km/h 66 % 0.0 in /  0 mm
00:15 3.6 °F /  -15.8 °C -2.2 °F /  -19 °C 995.1 in /  33694.1 hPa SSW 4.8 mph /  7.7 km/h 14.5 mph /  23.3 km/h 66 % 0.0 in /  0 mm
00:30 3.7 °F /  -15.7 °C -2.0 °F /  -18.9 °C 994.5 in /  33673.8 hPa South 6.4 mph /  10.3 km/h 14.5 mph /  23.3 km/h 66 % 0.0 in /  0 mm
00:45 3.6 °F /  -15.8 °C -2.0 °F /  -18.9 °C 994.1 in /  33660.2 hPa South 6.4 mph /  10.3 km/h 19.3 mph /  31.1 km/h 67 % 0.0 in /  0 mm
01:00 2.7 °F /  -16.3 °C -0.3 °F /  -17.9 °C 993.8 in /  33650.1 hPa SSW 11.3 mph /  18.2 km/h 32.2 mph /  51.8 km/h 81 % 0.0 in /  0 mm
01:15 1.8 °F /  -16.8 °C 0.1 °F /  -17.7 °C 993.5 in /  33639.9 hPa SSW 11.3 mph /  18.2 km/h 29.0 mph /  46.7 km/h 88 % 0.0 in /  0 mm
01:30 1.3 °F /  -17.1 °C 0.0 °F /  -17.8 °C 993.1 in /  33626.4 hPa SSW 11.3 mph /  18.2 km/h 35.4 mph /  57 km/h 91 % 0.0 in /  0 mm
01:45 1.3 °F /  -17.1 °C 0.3 °F /  -17.6 °C 992.4 in /  33602.7 hPa SSW 8.0 mph /  12.9 km/h 17.7 mph /  28.5 km/h 93 % 0.0 in /  0 mm
02:00 1.5 °F /  -16.9 °C 0.6 °F /  -17.4 °C 992.1 in /  33592.5 hPa SSW 8.0 mph /  12.9 km/h 20.9 mph /  33.6 km/h 94 % 0.0 in /  0 mm
02:15 1.8 °F /  -16.8 °C 0.9 °F /  -17.3 °C 991.8 in /  33582.3 hPa SSW 8.0 mph /  12.9 km/h 17.7 mph /  28.5 km/h 94 % 0.0 in /  0 mm
02:30 1.9 °F /  -16.7 °C 1.1 °F /  -17.2 °C 991.4 in /  33568.8 hPa SSW 8.0 mph /  12.9 km/h 25.7 mph /  41.4 km/h 94 % 0.0 in /  0 mm
02:45 1.9 °F /  -16.7 °C 1.0 °F /  -17.2 °C 990.7 in /  33545.1 hPa SSW 9.7 mph /  15.6 km/h 29.0 mph /  46.7 km/h 94 % 0.0 in /  0 mm
03:00 1.8 °F /  -16.8 °C 1.0 °F /  -17.2 °C 990.4 in /  33534.9 hPa SSW 9.7 mph /  15.6 km/h 22.5 mph /  36.2 km/h 94 % 0.0 in /  0 mm
03:15 1.9 °F /  -16.7 °C 1.2 °F /  -17.1 °C 990.1 in /  33524.8 hPa SSW 11.3 mph /  18.2 km/h 25.7 mph /  41.4 km/h 95 % 0.0 in /  0 mm
03:30 1.8 °F /  -16.8 °C 1.0 °F /  -17.2 °C 989.7 in /  33511.2 hPa SSW 9.7 mph /  15.6 km/h 29.0 mph /  46.7 km/h 94 % 0.0 in /  0 mm
03:45 1.8 °F /  -16.8 °C 1.1 °F /  -17.2 °C 989.1 in /  33490.9 hPa SSW 11.3 mph /  18.2 km/h 24.1 mph /  38.8 km/h 95 % 0.0 in /  0 mm
04:00 1.9 °F /  -16.7 °C 1.2 °F /  -17.1 °C 988.7 in /  33477.4 hPa SSW 9.7 mph /  15.6 km/h 19.3 mph /  31.1 km/h 95 % 0.0 in /  0 mm
04:15 2.1 °F /  -16.6 °C 1.4 °F /  -17 °C 988.0 in /  33453.7 hPa SSW 8.0 mph /  12.9 km/h 29.0 mph /  46.7 km/h 95 % 0.0 in /  0 mm
04:30 2.3 °F /  -16.5 °C 1.6 °F /  -16.9 °C 987.7 in /  33443.5 hPa SSW 9.7 mph /  15.6 km/h 20.9 mph /  33.6 km/h 95 % 0.0 in /  0 mm
04:45 2.5 °F /  -16.4 °C 1.9 °F /  -16.7 °C 987.4 in /  33433.4 hPa SSW 8.0 mph /  12.9 km/h 16.1 mph /  25.9 km/h 96 % 0.0 in /  0 mm
05:15 2.8 °F /  -16.2 °C 2.2 °F /  -16.6 °C 986.7 in /  33409.7 hPa SSW 8.0 mph /  12.9 km/h 19.3 mph /  31.1 km/h 96 % 0.0 in /  0 mm
05:30 2.8 °F /  -16.2 °C 2.3 °F /  -16.5 °C 986.3 in /  33396.1 hPa South 8.0 mph /  12.9 km/h 20.9 mph /  33.6 km/h 96 % 0.0 in /  0 mm
05:45 2.9 °F /  -16.2 °C 2.3 °F /  -16.5 °C 986.0 in /  33386 hPa South 9.7 mph /  15.6 km/h 22.5 mph /  36.2 km/h 96 % 0.0 in /  0 mm
06:00 3.0 °F /  -16.1 °C 2.4 °F /  -16.4 °C 985.7 in /  33375.8 hPa SSW 9.7 mph /  15.6 km/h 22.5 mph /  36.2 km/h 96 % 0.0 in /  0 mm
06:15 2.9 °F /  -16.2 °C 2.3 °F /  -16.5 °C 985.3 in /  33362.3 hPa SSW 9.7 mph /  15.6 km/h 19.3 mph /  31.1 km/h 96 % 0.0 in /  0 mm
06:30 2.8 °F /  -16.2 °C 2.1 °F /  -16.6 °C 985.0 in /  33352.1 hPa South 9.7 mph /  15.6 km/h 17.7 mph /  28.5 km/h 95 % 0.0 in /  0 mm
06:45 2.8 °F /  -16.2 °C 2.3 °F /  -16.5 °C 984.6 in /  33338.6 hPa South 8.0 mph /  12.9 km/h 22.5 mph /  36.2 km/h 96 % 0.0 in /  0 mm
07:00 2.9 °F /  -16.2 °C 2.3 °F /  -16.5 °C 984.3 in /  33328.4 hPa SSW 4.8 mph /  7.7 km/h 12.9 mph /  20.8 km/h 96 % 0.0 in /  0 mm
07:15 3.0 °F /  -16.1 °C 2.4 °F /  -16.4 °C 984.3 in /  33328.4 hPa SSW 6.4 mph /  10.3 km/h 22.5 mph /  36.2 km/h 96 % 0.0 in /  0 mm
07:30 3.1 °F /  -16.1 °C 2.5 °F /  -16.4 °C 984.0 in /  33318.2 hPa SSW 6.4 mph /  10.3 km/h 16.1 mph /  25.9 km/h 96 % 0.0 in /  0 mm
07:45 3.2 °F /  -16 °C 2.6 °F /  -16.3 °C 983.6 in /  33304.7 hPa SSW 6.4 mph /  10.3 km/h 14.5 mph /  23.3 km/h 96 % 0.0 in /  0 mm
08:00 3.3 °F /  -15.9 °C 2.8 °F /  -16.2 °C 983.3 in /  33294.5 hPa SSW 4.8 mph /  7.7 km/h 12.9 mph /  20.8 km/h 96 % 0.0 in /  0 mm
08:15 3.5 °F /  -15.8 °C 3.1 °F /  -16.1 °C 983.3 in /  33294.5 hPa SSW 4.8 mph /  7.7 km/h 16.1 mph /  25.9 km/h 97 % 0.0 in /  0 mm
08:30 3.7 °F /  -15.7 °C 3.3 °F /  -15.9 °C 983.0 in /  33284.4 hPa SSW 6.4 mph /  10.3 km/h 16.1 mph /  25.9 km/h 97 % 0.0 in /  0 mm
08:45 3.8 °F /  -15.7 °C 3.4 °F /  -15.9 °C 982.6 in /  33270.8 hPa SSW 8.0 mph /  12.9 km/h 20.9 mph /  33.6 km/h 97 % 0.0 in /  0 mm
09:00 3.9 °F /  -15.6 °C 3.3 °F /  -15.9 °C 982.3 in /  33260.7 hPa SSW 8.0 mph /  12.9 km/h 17.7 mph /  28.5 km/h 96 % 0.0 in /  0 mm
09:15 3.9 °F /  -15.6 °C 3.4 °F /  -15.9 °C 982.3 in /  33260.7 hPa SSW 8.0 mph /  12.9 km/h 22.5 mph /  36.2 km/h 96 % 0.0 in /  0 mm
09:30 3.8 °F /  -15.7 °C 3.3 °F /  -15.9 °C 981.9 in /  33247.1 hPa SSW 8.0 mph /  12.9 km/h 30.6 mph /  49.2 km/h 96 % 0.0 in /  0 mm
09:45 3.8 °F /  -15.7 °C 3.2 °F /  -16 °C 981.9 in /  33247.1 hPa SSW 6.4 mph /  10.3 km/h 16.1 mph /  25.9 km/h 96 % 0.0 in /  0 mm
10:00 3.8 °F /  -15.7 °C 3.2 °F /  -16 °C 981.6 in /  33237 hPa SSW 6.4 mph /  10.3 km/h 12.9 mph /  20.8 km/h 96 % 0.0 in /  0 mm
10:15 3.7 °F /  -15.7 °C 3.1 °F /  -16.1 °C 981.3 in /  33226.8 hPa SSW 8.0 mph /  12.9 km/h 20.9 mph /  33.6 km/h 96 % 0.0 in /  0 mm
10:30 3.7 °F /  -15.7 °C 3.1 °F /  -16.1 °C 981.3 in /  33226.8 hPa South 6.4 mph /  10.3 km/h 16.1 mph /  25.9 km/h 96 % 0.0 in /  0 mm
10:45 3.6 °F /  -15.8 °C 3.0 °F /  -16.1 °C 981.3 in /  33226.8 hPa SSW 8.0 mph /  12.9 km/h 17.7 mph /  28.5 km/h 96 % 0.0 in /  0 mm
11:00 3.4 °F /  -15.9 °C 2.8 °F /  -16.2 °C 981.3 in /  33226.8 hPa SSW 6.4 mph /  10.3 km/h 19.3 mph /  31.1 km/h 96 % 0.0 in /  0 mm
11:15 3.3 °F /  -15.9 °C 2.7 °F /  -16.3 °C 981.3 in /  33226.8 hPa SSW 8.0 mph /  12.9 km/h 17.7 mph /  28.5 km/h 96 % 0.0 in /  0 mm
11:30 3.1 °F /  -16.1 °C 2.5 °F /  -16.4 °C 981.3 in /  33226.8 hPa SSW 8.0 mph /  12.9 km/h 16.1 mph /  25.9 km/h 96 % 0.0 in /  0 mm
11:45 2.8 °F /  -16.2 °C 2.3 °F /  -16.5 °C 980.9 in /  33213.3 hPa SSW 6.4 mph /  10.3 km/h 17.7 mph /  28.5 km/h 96 % 0.0 in /  0 mm
12:00 2.6 °F /  -16.3 °C 1.8 °F /  -16.8 °C 981.3 in /  33226.8 hPa SSW 8.0 mph /  12.9 km/h 16.1 mph /  25.9 km/h 95 % 0.0 in /  0 mm
12:15 2.4 °F /  -16.4 °C 1.7 °F /  -16.8 °C 981.3 in /  33226.8 hPa SSW 6.4 mph /  10.3 km/h 16.1 mph /  25.9 km/h 95 % 0.0 in /  0 mm
12:30 2.5 °F /  -16.4 °C 1.9 °F /  -16.7 °C 980.9 in /  33213.3 hPa SSW 4.8 mph /  7.7 km/h 12.9 mph /  20.8 km/h 96 % 0.0 in /  0 mm
12:45 2.7 °F /  -16.3 °C 2.1 °F /  -16.6 °C 980.9 in /  33213.3 hPa SSW 4.8 mph /  7.7 km/h 11.3 mph /  18.2 km/h 96 % 0.0 in /  0 mm
13:00 2.8 °F /  -16.2 °C 2.3 °F /  -16.5 °C 980.6 in /  33203.1 hPa SSW 3.2 mph /  5.1 km/h 9.7 mph /  15.6 km/h 96 % 0.0 in /  0 mm
13:15 3.2 °F /  -16 °C 2.6 °F /  -16.3 °C 980.9 in /  33213.3 hPa SSW 6.4 mph /  10.3 km/h 16.1 mph /  25.9 km/h 96 % 0.0 in /  0 mm
13:30 3.2 °F /  -16 °C 2.6 °F /  -16.3 °C 980.9 in /  33213.3 hPa SSW 4.8 mph /  7.7 km/h 14.5 mph /  23.3 km/h 96 % 0.0 in /  0 mm
13:45 3.1 °F /  -16.1 °C 2.5 °F /  -16.4 °C 980.9 in /  33213.3 hPa SSW 8.0 mph /  12.9 km/h 24.1 mph /  38.8 km/h 96 % 0.0 in /  0 mm
14:00 3.1 °F /  -16.1 °C 2.3 °F /  -16.5 °C 980.9 in /  33213.3 hPa SSW 8.0 mph /  12.9 km/h 17.7 mph /  28.5 km/h 95 % 0.0 in /  0 mm
14:15 3.1 °F /  -16.1 °C 2.3 °F /  -16.5 °C 980.6 in /  33203.1 hPa SSW 6.4 mph /  10.3 km/h 16.1 mph /  25.9 km/h 95 % 0.0 in /  0 mm
14:30 3.8 °F /  -15.7 °C 3.2 °F /  -16 °C 980.6 in /  33203.1 hPa SSW 4.8 mph /  7.7 km/h 16.1 mph /  25.9 km/h 96 % 0.0 in /  0 mm
14:45 3.7 °F /  -15.7 °C 2.8 °F /  -16.2 °C 980.6 in /  33203.1 hPa SSW 6.4 mph /  10.3 km/h 12.9 mph /  20.8 km/h 94 % 0.0 in /  0 mm
15:00 3.9 °F /  -15.6 °C 3.0 °F /  -16.1 °C 980.6 in /  33203.1 hPa SSW 6.4 mph /  10.3 km/h 14.5 mph /  23.3 km/h 94 % 0.0 in /  0 mm
15:15 3.9 °F /  -15.6 °C 2.9 °F /  -16.2 °C 980.9 in /  33213.3 hPa SSW 6.4 mph /  10.3 km/h 16.1 mph /  25.9 km/h 93 % 0.0 in /  0 mm
15:30 3.7 °F /  -15.7 °C 2.5 °F /  -16.4 °C 980.9 in /  33213.3 hPa SSW 8.0 mph /  12.9 km/h 17.7 mph /  28.5 km/h 92 % 0.0 in /  0 mm
15:45 3.6 °F /  -15.8 °C 2.6 °F /  -16.3 °C 980.9 in /  33213.3 hPa SSW 8.0 mph /  12.9 km/h 22.5 mph /  36.2 km/h 93 % 0.0 in /  0 mm
16:00 3.7 °F /  -15.7 °C 2.6 °F /  -16.3 °C 980.9 in /  33213.3 hPa SSW 6.4 mph /  10.3 km/h 12.9 mph /  20.8 km/h 93 % 0.0 in /  0 mm
16:15 3.7 °F /  -15.7 °C 2.6 °F /  -16.3 °C 980.9 in /  33213.3 hPa SSW 6.4 mph /  10.3 km/h 17.7 mph /  28.5 km/h 93 % 0.0 in /  0 mm
16:30 3.9 °F /  -15.6 °C 2.7 °F /  -16.3 °C 980.9 in /  33213.3 hPa SSW 6.4 mph /  10.3 km/h 14.5 mph /  23.3 km/h 92 % 0.0 in /  0 mm
16:45 3.8 °F /  -15.7 °C 2.3 °F /  -16.5 °C 980.9 in /  33213.3 hPa SSW 8.0 mph /  12.9 km/h 16.1 mph /  25.9 km/h 90 % 0.0 in /  0 mm
17:00 3.8 °F /  -15.7 °C 2.0 °F /  -16.7 °C 980.9 in /  33213.3 hPa SSW 8.0 mph /  12.9 km/h 17.7 mph /  28.5 km/h 88 % 0.0 in /  0 mm
17:15 3.7 °F /  -15.7 °C 1.7 °F /  -16.8 °C 980.9 in /  33213.3 hPa SSW 6.4 mph /  10.3 km/h 17.7 mph /  28.5 km/h 87 % 0.0 in /  0 mm
17:30 3.6 °F /  -15.8 °C 1.6 °F /  -16.9 °C 980.9 in /  33213.3 hPa SSW 6.4 mph /  10.3 km/h 12.9 mph /  20.8 km/h 87 % 0.0 in /  0 mm
17:45 3.5 °F /  -15.8 °C 1.2 °F /  -17.1 °C 980.9 in /  33213.3 hPa SSW 6.4 mph /  10.3 km/h 16.1 mph /  25.9 km/h 85 % 0.0 in /  0 mm
18:00 3.3 °F /  -15.9 °C 0.9 °F /  -17.3 °C 980.9 in /  33213.3 hPa SSW 8.0 mph /  12.9 km/h 22.5 mph /  36.2 km/h 84 % 0.0 in /  0 mm
18:15 3.1 °F /  -16.1 °C 0.8 °F /  -17.3 °C 980.9 in /  33213.3 hPa SSW 6.4 mph /  10.3 km/h 14.5 mph /  23.3 km/h 85 % 0.0 in /  0 mm
18:30 2.8 °F /  -16.2 °C 0.6 °F /  -17.4 °C 980.9 in /  33213.3 hPa SSW 6.4 mph /  10.3 km/h 12.9 mph /  20.8 km/h 85 % 0.0 in /  0 mm
18:45 2.6 °F /  -16.3 °C 0.5 °F /  -17.5 °C 980.9 in /  33213.3 hPa SSW 3.2 mph /  5.1 km/h 11.3 mph /  18.2 km/h 86 % 0.0 in /  0 mm
19:00 2.5 °F /  -16.4 °C 0.2 °F /  -17.7 °C 980.9 in /  33213.3 hPa SSW 8.0 mph /  12.9 km/h 17.7 mph /  28.5 km/h 85 % 0.0 in /  0 mm
19:15 2.3 °F /  -16.5 °C 0.2 °F /  -17.7 °C 981.3 in /  33226.8 hPa SSW 4.8 mph /  7.7 km/h 16.1 mph /  25.9 km/h 86 % 0.0 in /  0 mm
19:30 2.1 °F /  -16.6 °C 0.1 °F /  -17.7 °C 981.3 in /  33226.8 hPa SSW 4.8 mph /  7.7 km/h 12.9 mph /  20.8 km/h 87 % 0.0 in /  0 mm
19:45 1.9 °F /  -16.7 °C 0.0 °F /  -17.8 °C 981.3 in /  33226.8 hPa SSW 4.8 mph /  7.7 km/h 14.5 mph /  23.3 km/h 87 % 0.0 in /  0 mm
20:00 1.9 °F /  -16.7 °C 0.0 °F /  -17.8 °C 981.3 in /  33226.8 hPa SSW 4.8 mph /  7.7 km/h 16.1 mph /  25.9 km/h 87 % 0.0 in /  0 mm
20:30 1.6 °F /  -16.9 °C -0.3 °F /  -17.9 °C 980.9 in /  33213.3 hPa SSW 4.8 mph /  7.7 km/h 14.5 mph /  23.3 km/h 87 % 0.0 in /  0 mm
20:45 1.5 °F /  -16.9 °C -0.4 °F /  -18 °C 980.9 in /  33213.3 hPa SSW 4.8 mph /  7.7 km/h 12.9 mph /  20.8 km/h 87 % 0.0 in /  0 mm
21:00 1.3 °F /  -17.1 °C -0.6 °F /  -18.1 °C 980.9 in /  33213.3 hPa SSW 3.2 mph /  5.1 km/h 9.7 mph /  15.6 km/h 87 % 0.0 in /  0 mm
21:15 1.1 °F /  -17.2 °C -0.7 °F /  -18.2 °C 980.9 in /  33213.3 hPa SSW 1.6 mph /  2.6 km/h 8.0 mph /  12.9 km/h 88 % 0.0 in /  0 mm
21:30 0.9 °F /  -17.3 °C -0.7 °F /  -18.2 °C 980.9 in /  33213.3 hPa SSW 3.2 mph /  5.1 km/h 9.7 mph /  15.6 km/h 89 % 0.0 in /  0 mm
21:45 0.9 °F /  -17.3 °C -0.7 °F /  -18.2 °C 980.9 in /  33213.3 hPa SSW 4.8 mph /  7.7 km/h 11.3 mph /  18.2 km/h 89 % 0.0 in /  0 mm
22:00 1.0 °F /  -17.2 °C -0.6 °F /  -18.1 °C 980.9 in /  33213.3 hPa SSW 4.8 mph /  7.7 km/h 16.1 mph /  25.9 km/h 89 % 0.0 in /  0 mm
22:15 0.9 °F /  -17.3 °C -0.8 °F /  -18.2 °C 980.9 in /  33213.3 hPa South 3.2 mph /  5.1 km/h 9.7 mph /  15.6 km/h 88 % 0.0 in /  0 mm
22:30 0.9 °F /  -17.3 °C -0.7 °F /  -18.2 °C 980.9 in /  33213.3 hPa SSW 3.2 mph /  5.1 km/h 9.7 mph /  15.6 km/h 89 % 0.0 in /  0 mm
22:45 0.8 °F /  -17.3 °C -0.8 °F /  -18.2 °C 980.9 in /  33213.3 hPa SSW 3.2 mph /  5.1 km/h 11.3 mph /  18.2 km/h 89 % 0.0 in /  0 mm
23:00 0.9 °F /  -17.3 °C -0.7 °F /  -18.2 °C 980.9 in /  33213.3 hPa SSW 4.8 mph /  7.7 km/h 11.3 mph /  18.2 km/h 89 % 0.0 in /  0 mm
23:15 0.8 °F /  -17.3 °C -0.8 °F /  -18.2 °C 980.9 in /  33213.3 hPa SSW 3.2 mph /  5.1 km/h 14.5 mph /  23.3 km/h 89 % 0.0 in /  0 mm
23:30 0.7 °F /  -17.4 °C -0.9 °F /  -18.3 °C 980.6 in /  33203.1 hPa South 1.6 mph /  2.6 km/h 8.0 mph /  12.9 km/h 89 % 0.0 in /  0 mm
23:45 0.6 °F /  -17.4 °C -1.0 °F /  -18.3 °C 980.6 in /  33203.1 hPa SSW 1.6 mph /  2.6 km/h 4.8 mph /  7.7 km/h 89 % 0.0 in /  0 mm
Esan sääasema
Terveisin Weather Underground - 2.75 mb

Alkuperäinen skripti  Jim McMurry - jmcmurry@mwt.net Sovitettu myös templatelle  Wim van der Kuil - Leuven-Template.eu

Laitteet joita käytämme:

Sääasema
Davis VP2

Sääasemaohjelma
Cumulus

Sääaseman tietokone
Asus EeePC

Palveluntarjoaja
Suncomet

Davis VP2

Cumulus

Asus EeePC

Suncomet